Time;durP1;ratioP1;P1;durP2;ratioP2;P2;SDS_P1;SDS_P2;PMS_P1;PMS_P2;Temp;Humidity;BMP_temperature;BMP_pressure;BME280_temperature;BME280_humidity;BME280_pressure;Samples;Min_cycle;Max_cycle;Signal;HPM_P1;HPM_P2
2023/08/27 00:00:38;;;;;;;14.20;9.80;;;;;;;22.22;98.29;99888.33;677818;1275;140369;-76
2023/08/27 00:16:07;;;;;;;18.70;11.40;;;;;;;22.43;98.12;99898.48;677061;1260;140348;-76
2023/08/27 00:31:10;;;;;;;29.70;15.40;;;;;;;22.40;98.17;99871.98;677705;1261;139809;-75
2023/08/27 00:46:13;;;;;;;18.90;13.00;;;;;;;22.29;98.37;99840.50;668768;1275;139745;-75
2023/08/27 01:01:19;;;;;;;24.40;13.00;;;;;;;22.11;100.00;99858.89;670653;1263;139631;-76
2023/08/27 01:16:25;;;;;;;19.40;12.90;;;;;;;22.16;99.77;99838.09;681349;1259;140736;-75
2023/08/27 01:31:34;;;;;;;20.20;13.90;;;;;;;21.85;100.00;99832.37;679655;1261;158572;-76
2023/08/27 01:46:37;;;;;;;16.80;13.40;;;;;;;21.91;100.00;99853.34;678845;1275;140701;-76
2023/08/27 02:01:40;;;;;;;18.70;13.00;;;;;;;22.06;100.00;99872.58;678972;1265;140739;-76
2023/08/27 02:16:44;;;;;;;24.60;14.90;;;;;;;21.88;100.00;99898.39;673499;1264;140153;-75
2023/08/27 02:31:47;;;;;;;16.90;12.60;;;;;;;21.85;100.00;99890.29;669119;1266;139359;-76
2023/08/27 02:46:51;;;;;;;23.60;14.60;;;;;;;22.13;100.00;99888.23;669460;1266;140248;-75
2023/08/27 03:01:55;;;;;;;23.00;14.40;;;;;;;22.11;100.00;99866.83;668164;1264;140122;-75
2023/08/27 03:16:59;;;;;;;16.70;12.60;;;;;;;22.11;100.00;99858.02;667960;1267;140481;-76
2023/08/27 03:32:03;;;;;;;20.10;14.30;;;;;;;21.86;100.00;99849.65;679087;1263;140880;-76
2023/08/27 03:47:06;;;;;;;19.40;14.00;;;;;;;21.82;100.00;99880.82;681735;1266;140642;-76
2023/08/27 04:02:12;;;;;;;45.00;24.20;;;;;;;21.83;100.00;99899.09;678172;1264;141579;-77
2023/08/27 04:17:15;;;;;;;26.00;19.40;;;;;;;22.26;100.00;99901.84;676965;1263;140989;-77
2023/08/27 04:44:01;;;;;;;19.40;13.70;;;;;;;22.89;100.00;99914.88;661461;1298;545016;-77
2023/08/27 04:59:06;;;;;;;20.30;14.20;;;;;;;23.11;100.00;99918.39;676821;1274;140476;-75
2023/08/27 05:14:09;;;;;;;21.00;14.70;;;;;;;23.08;99.97;99909.98;675116;1273;140110;-76
2023/08/27 05:29:12;;;;;;;18.20;14.40;;;;;;;23.39;100.00;99906.98;677239;1269;139754;-76
2023/08/27 05:44:16;;;;;;;18.80;14.00;;;;;;;24.05;100.00;99905.52;674903;1271;140220;-76
2023/08/27 05:59:20;;;;;;;18.80;13.90;;;;;;;24.94;99.15;99911.19;672163;1275;139735;-76
2023/08/27 06:14:23;;;;;;;16.80;13.60;;;;;;;26.27;97.72;99904.61;673360;1272;140176;-76
2023/08/27 06:29:26;;;;;;;15.10;12.70;;;;;;;28.10;90.58;99903.31;671809;1283;139662;-76
2023/08/27 06:44:29;;;;;;;16.20;12.40;;;;;;;27.33;91.65;99880.66;671452;1271;139769;-76
2023/08/27 06:59:33;;;;;;;14.10;10.30;;;;;;;28.94;88.16;99879.66;679518;1271;139592;-76
2023/08/27 07:14:37;;;;;;;10.80;8.00;;;;;;;30.17;84.87;99883.73;672219;1269;139813;-77
2023/08/27 07:29:40;;;;;;;11.10;7.50;;;;;;;33.16;75.10;99886.65;668498;1272;138911;-76
2023/08/27 07:44:44;;;;;;;9.80;8.40;;;;;;;31.90;74.92;99874.27;666811;1271;138752;-75
2023/08/27 07:59:49;;;;;;;9.70;6.80;;;;;;;30.87;77.66;99857.23;667454;1269;138893;-76
2023/08/27 08:14:52;;;;;;;7.30;5.60;;;;;;;32.22;73.90;99852.83;667540;1268;137790;-76
2023/08/27 08:29:56;;;;;;;7.60;5.40;;;;;;;31.77;73.60;99853.77;668157;1272;139649;-78
2023/08/27 08:45:10;;;;;;;6.20;5.10;;;;;;;31.29;71.51;99859.35;668004;1269;138409;-76
2023/08/27 09:00:15;;;;;;;7.60;5.70;;;;;;;30.46;72.54;99844.11;667236;1279;137941;-76
2023/08/27 09:15:19;;;;;;;6.90;5.00;;;;;;;31.71;70.50;99841.77;667264;1281;141468;-77
2023/08/27 09:30:23;;;;;;;5.40;4.40;;;;;;;32.51;68.60;99832.89;668336;1269;138209;-76
2023/08/27 09:45:27;;;;;;;7.20;4.80;;;;;;;33.22;65.35;99831.23;666583;1271;138886;-77
2023/08/27 10:00:32;;;;;;;8.80;5.40;;;;;;;31.96;66.33;99839.36;667016;1272;137665;-76
2023/08/27 10:15:37;;;;;;;7.10;4.90;;;;;;;31.19;67.20;99829.70;667577;1270;138142;-76
2023/08/27 10:30:43;;;;;;;16.80;9.40;;;;;;;31.14;67.87;99818.96;667962;1269;138290;-76
2023/08/27 10:45:50;;;;;;;6.60;4.50;;;;;;;31.03;67.31;99822.50;666918;1271;139789;-76
2023/08/27 11:01:07;;;;;;;7.60;5.10;;;;;;;30.63;67.70;99830.20;667468;1270;138027;-76
2023/08/27 11:16:13;;;;;;;7.70;5.40;;;;;;;31.03;69.06;99798.03;667099;1278;137967;-75
2023/08/27 11:31:17;;;;;;;7.10;5.50;;;;;;;31.76;69.28;99791.89;666850;1279;137857;-75
2023/08/27 11:46:21;;;;;;;9.30;6.60;;;;;;;32.37;68.31;99777.13;666831;1270;138763;-74
2023/08/27 12:01:25;;;;;;;11.10;7.00;;;;;;;31.58;69.75;99801.57;667147;1270;138754;-75
2023/08/27 12:16:32;;;;;;;12.50;6.40;;;;;;;30.65;72.74;99781.94;666238;1270;138997;-75
2023/08/27 12:31:36;;;;;;;9.20;8.10;;;;;;;30.05;74.26;99802.76;666378;1272;139958;-75
2023/08/27 12:46:39;;;;;;;8.50;6.50;;;;;;;29.89;74.68;99773.50;667081;1271;138308;-75
2023/08/27 13:01:45;;;;;;;6.00;5.40;;;;;;;30.56;74.36;99751.16;667853;1265;140069;-75
2023/08/27 13:16:50;;;;;;;7.90;6.00;;;;;;;30.84;73.06;99717.38;668261;1278;137800;-75
2023/08/27 13:31:56;;;;;;;8.20;5.70;;;;;;;30.27;72.87;99700.98;668640;1268;138310;-76
2023/08/27 13:47:01;;;;;;;8.40;6.20;;;;;;;29.98;73.82;99687.90;667532;1264;139379;-76
2023/08/27 14:02:07;;;;;;;6.30;5.50;;;;;;;29.60;74.15;99684.47;668842;1263;137928;-76
2023/08/27 14:17:13;;;;;;;8.70;6.70;;;;;;;29.25;75.09;99695.39;669349;1267;140804;-75
2023/08/27 14:32:17;;;;;;;8.10;6.10;;;;;;;28.94;76.06;99694.09;668980;1263;138892;-75
2023/08/27 14:47:20;;;;;;;9.00;6.80;;;;;;;28.75;76.77;99656.05;668381;1264;138798;-75
2023/08/27 15:02:24;;;;;;;7.30;6.10;;;;;;;28.54;77.50;99621.72;668096;1278;139370;-78
2023/08/27 15:17:28;;;;;;;9.60;6.50;;;;;;;28.42;78.29;99636.13;667470;1268;138924;-76
2023/08/27 15:32:34;;;;;;;9.00;6.70;;;;;;;28.25;77.65;99631.38;667208;1267;138519;-77
2023/08/27 15:47:38;;;;;;;8.90;6.50;;;;;;;28.01;77.68;99603.14;667088;1264;139232;-75
2023/08/27 16:02:41;;;;;;;16.80;10.20;;;;;;;27.67;78.05;99581.02;667821;1266;138340;-76
2023/08/27 16:17:48;;;;;;;14.20;8.60;;;;;;;27.50;79.00;99573.71;667584;1261;139995;-74
2023/08/27 16:32:52;;;;;;;12.50;7.00;;;;;;;27.48;78.74;99571.12;667209;1267;139215;-75
2023/08/27 16:47:56;;;;;;;15.90;7.60;;;;;;;27.26;79.21;99570.36;667673;1263;140634;-75
2023/08/27 17:03:00;;;;;;;23.20;12.80;;;;;;;27.14;79.42;99554.22;670060;1267;139196;-74
2023/08/27 17:18:04;;;;;;;19.30;13.40;;;;;;;26.88;80.16;99550.34;668142;1266;139186;-74
2023/08/27 17:33:08;;;;;;;55.30;26.40;;;;;;;26.58;81.21;99535.35;669655;1265;139386;-74
2023/08/27 17:48:17;;;;;;;17.70;11.60;;;;;;;26.22;82.87;99514.14;669579;1267;141092;-76
2023/08/27 18:03:23;;;;;;;33.60;16.40;;;;;;;25.99;84.63;99521.77;668913;1265;140643;-75
2023/08/27 18:18:28;;;;;;;21.30;13.60;;;;;;;25.76;87.24;99515.93;668457;1264;139163;-75
2023/08/27 18:33:31;;;;;;;20.40;13.70;;;;;;;25.59;90.00;99504.13;669001;1267;138985;-74
2023/08/27 18:48:37;;;;;;;35.30;26.70;;;;;;;25.60;90.96;99489.84;668042;1263;140576;-76
2023/08/27 19:03:42;;;;;;;27.30;17.20;;;;;;;25.46;92.32;99473.83;669464;1265;139500;-77
2023/08/27 19:18:45;;;;;;;21.90;15.00;;;;;;;25.06;97.30;99455.23;679987;1265;140353;-76
2023/08/27 19:33:48;;;;;;;20.20;14.20;;;;;;;24.69;99.50;99415.75;678979;1265;138931;-76
2023/08/27 19:48:53;;;;;;;29.20;19.60;;;;;;;24.47;99.73;99396.80;681062;1264;140475;-76
2023/08/27 20:03:57;;;;;;;23.20;16.50;;;;;;;24.37;100.00;99380.39;678594;1262;139090;-76
2023/08/27 20:19:00;;;;;;;18.10;13.00;;;;;;;24.22;100.00;99344.86;680315;1267;139809;-76
2023/08/27 20:34:04;;;;;;;23.80;15.30;;;;;;;24.06;100.00;99305.44;678313;1265;142580;-75
2023/08/27 20:49:07;;;;;;;21.50;12.70;;;;;;;23.92;100.00;99270.88;680237;1266;141704;-76
2023/08/27 21:04:10;;;;;;;17.50;11.50;;;;;;;23.83;100.00;99260.02;676316;1264;140840;-76
2023/08/27 21:19:14;;;;;;;18.10;11.60;;;;;;;23.74;100.00;99233.23;675242;1266;140325;-76
2023/08/27 21:34:17;;;;;;;14.50;10.40;;;;;;;23.65;100.00;99254.63;679213;1266;140884;-76
2023/08/27 21:49:21;;;;;;;13.80;8.80;;;;;;;23.53;100.00;99238.02;673607;1266;139966;-75
2023/08/27 22:04:25;;;;;;;15.20;10.00;;;;;;;23.59;100.00;99227.84;675703;1268;140491;-75
2023/08/27 22:19:29;;;;;;;14.40;8.80;;;;;;;23.40;100.00;99220.52;679550;1266;140615;-76
2023/08/27 22:34:33;;;;;;;3.70;2.10;;;;;;;22.61;100.00;99267.65;671186;1266;139564;-76
2023/08/27 22:49:45;;;;;;;2.40;1.30;;;;;;;21.84;100.00;99294.19;671367;1268;140617;-76
2023/08/27 23:04:49;;;;;;;2.90;0.70;;;;;;;21.50;100.00;99296.06;667922;1266;140280;-76
2023/08/27 23:19:52;;;;;;;1.60;1.00;;;;;;;21.24;100.00;99341.15;668061;1263;140037;-76
2023/08/27 23:34:55;;;;;;;4.20;2.30;;;;;;;21.32;100.00;99392.20;667172;1265;140085;-75
2023/08/27 23:49:59;;;;;;;6.50;4.10;;;;;;;21.44;100.00;99407.09;667084;1268;139040;-75
